createdAt,value
2018-12-25T00:00:00.451Z,3.53
2018-12-25T00:02:29.105Z,3.27
2018-12-25T00:04:57.659Z,3.80
2018-12-25T00:07:26.242Z,3.13
2018-12-25T00:09:54.798Z,3.63
2018-12-25T00:12:23.698Z,3.80
2018-12-25T00:14:52.269Z,3.40
2018-12-25T00:17:20.836Z,3.90
2018-12-25T00:20:03.019Z,3.63
2018-12-25T00:22:31.595Z,3.37
2018-12-25T00:25:00.192Z,3.90
2018-12-25T00:27:28.812Z,3.40
2018-12-25T00:29:57.395Z,3.77
2018-12-25T00:32:25.967Z,3.87
2018-12-25T00:34:54.538Z,4.00
2018-12-25T00:37:23.102Z,4.10
2018-12-25T00:39:51.687Z,3.30
2018-12-25T00:42:20.324Z,4.27
2018-12-25T00:44:48.910Z,3.60
2018-12-25T00:47:17.482Z,3.97
2018-12-25T00:49:46.082Z,3.77
2018-12-25T00:52:14.636Z,4.77
2018-12-25T00:54:43.232Z,3.90
2018-12-25T00:57:11.793Z,4.10
2018-12-25T00:59:40.378Z,3.97
2018-12-25T01:02:08.940Z,4.23
2018-12-25T01:04:37.529Z,3.47
2018-12-25T01:07:06.158Z,4.40
2018-12-25T01:09:34.751Z,4.23
2018-12-25T01:12:03.299Z,3.87
2018-12-25T01:14:31.888Z,4.50
2018-12-25T01:17:00.451Z,3.70
2018-12-25T01:19:29.029Z,3.37
2018-12-25T01:21:57.592Z,4.00
2018-12-25T01:24:26.189Z,4.47
2018-12-25T01:26:54.750Z,4.20
2018-12-25T01:29:23.353Z,4.13
2018-12-25T01:31:51.927Z,4.63
2018-12-25T01:34:20.502Z,4.13
2018-12-25T01:36:49.068Z,4.47
2018-12-25T01:39:17.654Z,4.50
2018-12-25T01:41:46.224Z,3.90
2018-12-25T01:44:14.807Z,4.77
2018-12-25T01:46:43.372Z,4.10
2018-12-25T01:49:11.990Z,4.50
2018-12-25T01:51:40.557Z,4.20
2018-12-25T01:54:09.150Z,4.27
2018-12-25T01:56:37.710Z,4.27
2018-12-25T01:59:06.294Z,4.03
2018-12-25T02:01:34.876Z,3.93
2018-12-25T02:04:03.475Z,3.77
2018-12-25T02:06:32.045Z,4.33
2018-12-25T02:09:00.629Z,4.13
2018-12-25T02:11:29.213Z,3.33
2018-12-25T02:14:00.300Z,4.17
2018-12-25T02:16:28.867Z,4.07
2018-12-25T02:18:57.454Z,3.70
2018-12-25T02:24:34.095Z,3.37
2018-12-25T02:27:02.656Z,3.70
2018-12-25T02:29:31.237Z,4.03
2018-12-25T02:31:59.799Z,3.20
2018-12-25T02:34:28.378Z,3.43
2018-12-25T02:36:56.967Z,4.03
2018-12-25T02:39:25.546Z,3.90
2018-12-25T02:41:54.102Z,3.80
2018-12-25T02:44:22.708Z,3.60
2018-12-25T02:46:51.273Z,3.60
2018-12-25T02:49:19.872Z,3.40
2018-12-25T02:51:48.428Z,3.00
2018-12-25T02:54:17.015Z,3.37
2018-12-25T02:56:45.642Z,3.47
2018-12-25T02:59:14.233Z,3.33
2018-12-25T03:01:42.788Z,2.63
2018-12-25T03:07:05.546Z,2.63
2018-12-25T03:09:53.247Z,2.90
2018-12-25T03:12:21.814Z,2.43
2018-12-25T03:14:50.400Z,2.93
2018-12-25T03:17:18.948Z,2.43
2018-12-25T03:19:47.583Z,2.87
2018-12-25T03:22:16.150Z,2.57
2018-12-25T03:25:03.855Z,3.23
2018-12-25T03:27:32.421Z,2.00
2018-12-25T03:30:01.021Z,2.50
2018-12-25T03:32:29.586Z,2.40
2018-12-25T03:34:58.193Z,2.97
2018-12-25T03:37:26.747Z,2.70
2018-12-25T03:39:55.318Z,2.67
2018-12-25T03:42:23.919Z,2.63
2018-12-25T03:44:52.486Z,2.40
2018-12-25T03:47:21.070Z,2.80
2018-12-25T03:49:49.643Z,2.80
2018-12-25T03:52:18.240Z,2.83
2018-12-25T03:54:46.887Z,2.20
2018-12-25T03:57:15.478Z,2.07
2018-12-25T04:00:03.151Z,2.77
2018-12-25T04:02:31.735Z,2.43
2018-12-25T04:05:00.322Z,2.43
2018-12-25T04:07:48.009Z,2.27
2018-12-25T04:10:16.565Z,2.27
2018-12-25T04:12:45.175Z,2.23
2018-12-25T04:15:13.729Z,2.20
2018-12-25T04:17:42.299Z,2.20
2018-12-25T04:20:19.513Z,1.70
2018-12-25T04:22:41.181Z,2.17
2018-12-25T04:25:09.749Z,2.43
2018-12-25T04:27:38.331Z,2.37
2018-12-25T04:30:27.712Z,2.17
2018-12-25T04:32:56.288Z,1.97
2018-12-25T04:35:24.854Z,1.83
2018-12-25T04:37:53.495Z,1.87
2018-12-25T04:40:22.071Z,1.40
2018-12-25T04:42:50.666Z,2.20
2018-12-25T04:45:19.225Z,1.53
2018-12-25T04:47:47.807Z,2.07
2018-12-25T04:50:16.361Z,1.77
2018-12-25T04:52:44.945Z,1.60
2018-12-25T04:55:13.498Z,1.70
2018-12-25T04:57:42.103Z,1.60
2018-12-25T05:00:10.663Z,1.70
2018-12-25T05:02:39.249Z,1.63
2018-12-25T05:05:07.818Z,1.70
2018-12-25T05:07:36.463Z,1.30
2018-12-25T05:10:25.873Z,1.40
2018-12-25T05:12:54.460Z,1.57
2018-12-25T05:15:23.032Z,1.73
2018-12-25T05:17:51.625Z,1.33
2018-12-25T05:20:20.209Z,1.57
2018-12-25T05:23:08.145Z,1.47
2018-12-25T05:28:24.155Z,1.17
2018-12-25T05:30:52.790Z,1.67
2018-12-25T05:33:21.373Z,1.23
2018-12-25T05:35:49.955Z,1.37
2018-12-25T05:38:18.539Z,1.17
2018-12-25T05:40:47.104Z,1.43
2018-12-25T05:43:15.702Z,1.30
2018-12-25T05:45:44.257Z,1.20
2018-12-25T05:48:12.849Z,1.23
2018-12-25T05:50:46.575Z,1.03
2018-12-25T05:53:11.718Z,1.40
2018-12-25T05:55:40.268Z,1.17
2018-12-25T05:58:08.850Z,1.50
2018-12-25T06:00:37.403Z,1.53
2018-12-25T06:03:05.972Z,1.47
2018-12-25T06:05:34.560Z,1.70
2018-12-25T06:08:03.117Z,0.97
2018-12-25T06:10:31.706Z,1.43
2018-12-25T06:13:00.250Z,1.50
2018-12-25T06:15:28.837Z,1.30
2018-12-25T06:17:57.392Z,1.10
2018-12-25T06:20:25.986Z,1.80
2018-12-25T06:22:54.549Z,1.50
2018-12-25T06:25:23.139Z,1.17
2018-12-25T06:27:51.691Z,1.30
2018-12-25T06:30:20.375Z,1.37
2018-12-25T06:32:48.929Z,1.20
2018-12-25T06:35:17.506Z,1.30
2018-12-25T06:37:46.089Z,1.17
2018-12-25T06:40:14.671Z,1.50
2018-12-25T06:42:43.239Z,1.20
2018-12-25T06:45:11.822Z,1.37
2018-12-25T06:47:40.396Z,1.57
2018-12-25T06:50:08.974Z,1.07
2018-12-25T06:52:37.531Z,1.10
2018-12-25T06:55:06.114Z,1.10
2018-12-25T06:57:34.672Z,1.20
2018-12-25T07:00:23.898Z,1.17
2018-12-25T07:02:52.461Z,1.00
2018-12-25T07:05:21.076Z,1.40
2018-12-25T07:07:49.649Z,1.30
2018-12-25T07:10:18.268Z,1.10
2018-12-25T07:12:46.883Z,1.10
2018-12-25T07:15:34.786Z,1.30
2018-12-25T07:18:03.343Z,1.27
2018-12-25T07:20:31.923Z,1.23
2018-12-25T07:23:00.535Z,1.23
2018-12-25T07:25:29.090Z,1.23
2018-12-25T07:27:57.674Z,1.40
2018-12-25T07:30:26.230Z,1.37
2018-12-25T07:32:54.806Z,1.07
2018-12-25T07:35:23.360Z,1.23
2018-12-25T07:37:51.965Z,1.37
2018-12-25T07:40:20.522Z,1.50
2018-12-25T07:42:49.116Z,1.23
2018-12-25T07:45:17.667Z,1.03
2018-12-25T07:47:46.264Z,1.17
2018-12-25T07:50:14.839Z,1.20
2018-12-25T07:52:43.421Z,1.23
2018-12-25T07:55:12.008Z,1.40
2018-12-25T07:57:40.576Z,1.37
2018-12-25T08:00:28.606Z,1.27
2018-12-25T08:02:57.196Z,1.43
2018-12-25T08:05:25.754Z,2.03
2018-12-25T08:07:54.335Z,1.37
2018-12-25T08:10:22.890Z,1.63
2018-12-25T08:12:51.474Z,1.77
2018-12-25T08:15:20.030Z,1.40
2018-12-25T08:17:48.624Z,1.67
2018-12-25T08:20:17.201Z,1.50
2018-12-25T08:22:45.784Z,1.30
2018-12-25T08:25:14.371Z,1.37
2018-12-25T08:28:03.604Z,1.50
2018-12-25T08:30:32.164Z,1.67
2018-12-25T08:33:00.754Z,1.70
2018-12-25T08:35:29.306Z,1.33
2018-12-25T08:37:57.891Z,1.60
2018-12-25T08:40:26.452Z,1.43
2018-12-25T08:42:55.035Z,1.53
2018-12-25T08:45:23.599Z,1.70
2018-12-25T08:47:52.208Z,1.37
2018-12-25T08:50:20.770Z,1.70
2018-12-25T08:52:49.376Z,1.20
2018-12-25T08:55:17.937Z,1.63
2018-12-25T08:58:05.793Z,2.33
2018-12-25T09:00:34.377Z,1.70
2018-12-25T09:03:02.936Z,1.40
2018-12-25T09:05:31.522Z,1.37
2018-12-25T09:08:00.107Z,1.30
2018-12-25T09:10:28.681Z,1.47
2018-12-25T09:12:57.246Z,1.80
2018-12-25T09:15:25.837Z,1.43
2018-12-25T09:17:54.409Z,1.97
2018-12-25T09:20:23.087Z,1.47
2018-12-25T09:22:51.635Z,1.40
2018-12-25T09:25:20.267Z,1.40
2018-12-25T09:27:48.822Z,1.13
2018-12-25T09:30:17.413Z,1.50
2018-12-25T09:32:45.969Z,1.17
2018-12-25T09:35:14.556Z,1.37
2018-12-25T09:37:43.109Z,1.37
2018-12-25T09:40:11.688Z,1.40
2018-12-25T09:42:40.276Z,1.30
2018-12-25T09:45:08.865Z,1.23
2018-12-25T09:47:37.438Z,1.37
2018-12-25T09:50:06.028Z,1.43
2018-12-25T09:52:34.605Z,1.40
2018-12-25T09:55:03.201Z,1.17
2018-12-25T09:57:31.774Z,1.60
2018-12-25T10:00:00.364Z,1.60
2018-12-25T10:02:28.960Z,1.37
2018-12-25T10:04:57.559Z,1.10
2018-12-25T10:07:26.175Z,1.20
2018-12-25T10:09:54.710Z,1.60
2018-12-25T10:12:23.306Z,1.73
2018-12-25T10:14:51.899Z,1.43
2018-12-25T10:17:20.479Z,0.93
2018-12-25T10:19:49.130Z,1.00
2018-12-25T10:22:17.714Z,1.47
2018-12-25T10:24:46.285Z,1.20
2018-12-25T10:27:14.867Z,1.37
2018-12-25T10:29:43.430Z,1.57
2018-12-25T10:32:12.006Z,1.10
2018-12-25T10:34:40.563Z,1.57
2018-12-25T10:37:09.145Z,1.20
2018-12-25T10:39:37.710Z,1.30
2018-12-25T10:42:06.294Z,1.70
2018-12-25T10:44:55.665Z,1.13
2018-12-25T10:47:24.269Z,1.43
2018-12-25T10:49:52.835Z,1.33
2018-12-25T10:52:21.420Z,0.87
2018-12-25T10:54:49.994Z,1.13
2018-12-25T10:57:18.590Z,1.77
2018-12-25T10:59:47.160Z,1.30
2018-12-25T11:02:15.747Z,1.20
2018-12-25T11:04:44.309Z,0.90
2018-12-25T11:07:12.894Z,1.30
2018-12-25T11:09:41.471Z,1.70
2018-12-25T11:12:10.090Z,1.10
2018-12-25T11:14:38.665Z,1.27
2018-12-25T11:17:07.260Z,1.13
2018-12-25T11:19:35.831Z,1.40
2018-12-25T11:22:23.631Z,0.90
2018-12-25T11:24:52.190Z,0.97
2018-12-25T11:27:20.782Z,1.03
2018-12-25T11:29:49.347Z,1.53
2018-12-25T11:32:17.947Z,1.10
2018-12-25T11:34:46.511Z,1.07
2018-12-25T11:37:15.096Z,1.13
2018-12-25T11:39:43.666Z,1.10
2018-12-25T11:42:12.247Z,1.13
2018-12-25T11:44:40.836Z,0.90
2018-12-25T11:47:09.418Z,1.13
2018-12-25T11:49:57.378Z,1.33
2018-12-25T11:54:59.757Z,1.07
2018-12-25T11:57:28.344Z,1.13
2018-12-25T11:59:56.915Z,0.90
2018-12-25T12:02:25.509Z,0.90
2018-12-25T12:04:54.067Z,0.90
2018-12-25T12:07:22.650Z,1.20
2018-12-25T12:09:51.301Z,0.90
2018-12-25T12:12:40.653Z,1.27
2018-12-25T12:15:09.278Z,1.57
2018-12-25T12:17:37.838Z,1.30
2018-12-25T12:20:27.180Z,1.57
2018-12-25T12:22:55.761Z,1.17
2018-12-25T12:25:24.382Z,1.00
2018-12-25T12:27:52.914Z,1.40
2018-12-25T12:30:21.494Z,1.27
2018-12-25T12:32:50.094Z,1.07
2018-12-25T12:35:18.665Z,1.23
2018-12-25T12:37:47.239Z,1.70
2018-12-25T12:40:15.839Z,1.10
2018-12-25T12:42:44.454Z,1.20
2018-12-25T12:45:13.026Z,1.30
2018-12-25T12:47:41.609Z,2.47
2018-12-25T12:50:10.169Z,1.60
2018-12-25T12:52:45.407Z,0.70
2018-12-25T12:55:09.048Z,1.60
2018-12-25T12:57:37.654Z,1.40
2018-12-25T13:00:27.057Z,1.13
2018-12-25T13:02:55.621Z,1.00
2018-12-25T13:05:24.221Z,1.00
2018-12-25T13:07:52.775Z,1.13
2018-12-25T13:10:21.378Z,1.70
2018-12-25T13:12:49.962Z,1.13
2018-12-25T13:15:18.558Z,1.80
2018-12-25T13:17:47.144Z,1.47
2018-12-25T13:20:15.741Z,1.20
2018-12-25T13:22:44.319Z,0.80
2018-12-25T13:25:12.999Z,1.47
2018-12-25T13:27:41.560Z,1.30
2018-12-25T13:30:30.938Z,0.90
2018-12-25T13:32:59.523Z,0.97
2018-12-25T13:35:47.371Z,1.23
2018-12-25T13:38:15.946Z,1.47
2018-12-25T13:40:44.576Z,1.10
2018-12-25T13:43:13.212Z,0.90
2018-12-25T13:45:41.846Z,1.20
2018-12-25T13:48:17.559Z,1.43
2018-12-25T13:50:46.147Z,1.40
2018-12-25T13:53:14.730Z,1.00
2018-12-25T13:55:43.300Z,1.60
2018-12-25T13:58:11.938Z,1.60
2018-12-25T14:00:59.630Z,1.20
2018-12-25T14:03:28.209Z,1.37
2018-12-25T14:05:56.805Z,1.07
2018-12-25T14:08:25.381Z,1.03
2018-12-25T14:10:53.966Z,1.33
2018-12-25T14:13:22.536Z,1.33
2018-12-25T14:15:51.143Z,1.60
2018-12-25T14:18:19.716Z,1.10
2018-12-25T14:20:48.313Z,1.33
2018-12-25T14:23:16.874Z,1.40
2018-12-25T14:25:45.437Z,1.30
2018-12-25T14:28:14.040Z,1.50
2018-12-25T14:30:42.604Z,1.70
2018-12-25T14:33:11.201Z,1.63
2018-12-25T14:35:39.799Z,1.30
2018-12-25T14:38:08.426Z,1.30
2018-12-25T14:40:36.981Z,1.20
2018-12-25T14:43:24.715Z,1.33
2018-12-25T14:45:53.293Z,1.60
2018-12-25T14:48:21.879Z,1.97
2018-12-25T14:50:50.444Z,1.57
2018-12-25T14:53:19.848Z,1.30
2018-12-25T14:55:49.333Z,1.70
2018-12-25T14:58:17.919Z,1.30
2018-12-25T15:00:46.496Z,1.30
2018-12-25T15:03:15.092Z,1.77
2018-12-25T15:05:43.643Z,1.63
2018-12-25T15:08:12.226Z,1.93
2018-12-25T15:10:40.865Z,1.83
2018-12-25T15:13:09.453Z,1.40
2018-12-25T15:15:38.008Z,1.33
2018-12-25T15:18:06.611Z,1.13
2018-12-25T15:20:35.174Z,1.50
2018-12-25T15:23:03.758Z,1.20
2018-12-25T15:25:51.585Z,1.30
2018-12-25T15:28:20.179Z,1.80
2018-12-25T15:30:48.754Z,1.60
2018-12-25T15:33:17.344Z,1.30
2018-12-25T15:35:45.914Z,1.57
2018-12-25T15:38:14.509Z,1.70
2018-12-25T15:40:43.092Z,1.43
2018-12-25T15:43:11.689Z,1.80
2018-12-25T15:45:40.235Z,1.37
2018-12-25T15:48:08.845Z,1.30
2018-12-25T15:50:37.437Z,1.47
2018-12-25T15:53:25.366Z,2.30
2018-12-25T15:55:53.925Z,1.47
2018-12-25T15:58:22.508Z,1.67
2018-12-25T16:00:51.112Z,1.70
2018-12-25T16:03:19.774Z,1.63
2018-12-25T16:05:48.361Z,1.57
2018-12-25T16:08:16.922Z,1.40
2018-12-25T16:10:45.500Z,1.90
2018-12-25T16:13:14.063Z,1.77
2018-12-25T16:15:42.669Z,1.90
2018-12-25T16:18:11.229Z,1.40
2018-12-25T16:20:39.828Z,1.53
2018-12-25T16:23:08.383Z,1.40
2018-12-25T16:25:36.989Z,1.97
2018-12-25T16:28:05.634Z,2.20
2018-12-25T16:30:35.876Z,1.93
2018-12-25T16:33:04.428Z,1.97
2018-12-25T16:35:33.052Z,1.70
2018-12-25T16:38:01.632Z,1.87
2018-12-25T16:40:30.236Z,1.40
2018-12-25T16:42:58.793Z,1.90
2018-12-25T16:45:27.408Z,2.00
2018-12-25T16:47:55.960Z,2.30
2018-12-25T16:50:24.558Z,1.60
2018-12-25T16:53:12.329Z,1.73
2018-12-25T16:55:40.906Z,2.07
2018-12-25T16:58:09.484Z,1.60
2018-12-25T17:00:38.066Z,1.83
2018-12-25T17:03:06.638Z,1.90
2018-12-25T17:05:35.267Z,2.07
2018-12-25T17:08:03.786Z,1.97
2018-12-25T17:10:32.439Z,2.17
2018-12-25T17:13:01.001Z,2.10
2018-12-25T17:15:29.581Z,2.07
2018-12-25T17:17:58.188Z,1.87
2018-12-25T17:20:26.723Z,1.87
2018-12-25T17:22:55.321Z,1.77
2018-12-25T17:25:23.891Z,1.63
2018-12-25T17:27:52.492Z,1.73
2018-12-25T17:30:21.048Z,2.07
2018-12-25T17:32:49.660Z,2.30
2018-12-25T17:35:18.230Z,2.23
2018-12-25T17:37:46.822Z,1.57
2018-12-25T17:40:15.398Z,1.83
2018-12-25T17:42:43.985Z,2.20
2018-12-25T17:45:12.575Z,2.20
2018-12-25T17:47:41.165Z,2.30
2018-12-25T17:50:09.721Z,1.50
2018-12-25T17:52:38.319Z,1.70
2018-12-25T17:55:26.254Z,1.73
2018-12-25T17:58:13.935Z,1.90
2018-12-25T18:00:42.518Z,1.53
2018-12-25T18:03:11.097Z,1.67
2018-12-25T18:05:39.645Z,1.23
2018-12-25T18:08:08.243Z,1.90
2018-12-25T18:10:36.815Z,1.80
2018-12-25T18:13:05.537Z,1.57
2018-12-25T18:15:53.303Z,1.73
2018-12-25T18:18:21.906Z,2.13
2018-12-25T18:20:50.491Z,1.50
2018-12-25T18:23:19.093Z,2.23
2018-12-25T18:25:47.658Z,1.67
2018-12-25T18:28:16.258Z,1.43
2018-12-25T18:30:44.824Z,1.90
2018-12-25T18:33:13.424Z,1.80
2018-12-25T18:35:41.995Z,1.40
2018-12-25T18:38:11.589Z,1.90
2018-12-25T18:40:40.903Z,1.60
2018-12-25T18:43:09.505Z,1.30
2018-12-25T18:45:38.123Z,1.63
2018-12-25T18:48:06.668Z,1.87
2018-12-25T18:50:35.257Z,1.80
2018-12-25T18:53:03.821Z,1.30
2018-12-25T18:55:32.429Z,1.67
2018-12-25T18:58:00.996Z,1.70
2018-12-25T19:00:29.593Z,1.50
2018-12-25T19:02:58.157Z,1.60
2018-12-25T19:05:26.763Z,1.47
2018-12-25T19:07:55.367Z,1.40
2018-12-25T19:10:23.987Z,1.57
2018-12-25T19:12:52.547Z,1.30
2018-12-25T19:16:01.092Z,1.63
2018-12-25T19:18:29.642Z,1.37
2018-12-25T19:20:58.208Z,1.30
2018-12-25T19:23:26.768Z,1.47
2018-12-25T19:25:55.366Z,1.73
2018-12-25T19:28:23.934Z,1.63
2018-12-25T19:30:52.543Z,1.60
2018-12-25T19:33:21.155Z,1.47
2018-12-25T19:35:49.735Z,2.17
2018-12-25T19:38:39.085Z,1.63
2018-12-25T19:41:26.806Z,1.47
2018-12-25T19:43:55.377Z,1.80
2018-12-25T19:46:23.969Z,1.40
2018-12-25T19:48:52.548Z,1.63
2018-12-25T19:51:21.185Z,1.73
2018-12-25T19:53:51.470Z,1.40
2018-12-25T19:56:20.054Z,1.17
2018-12-25T19:58:48.620Z,1.30
2018-12-25T20:01:17.230Z,1.50
2018-12-25T20:04:06.578Z,1.80
2018-12-25T20:06:55.984Z,1.33
2018-12-25T20:09:45.394Z,1.47
2018-12-25T20:12:52.624Z,1.70
2018-12-25T20:19:13.922Z,1.30
2018-12-25T20:22:21.130Z,1.73
2018-12-25T20:25:10.481Z,1.63
2018-12-25T20:28:17.699Z,1.60
2018-12-25T20:31:24.847Z,1.13
2018-12-25T20:34:32.102Z,1.30
2018-12-25T20:40:47.642Z,1.33
2018-12-25T20:43:54.847Z,1.10
2018-12-25T20:46:44.267Z,1.63
2018-12-25T20:49:51.475Z,1.20
2018-12-25T20:52:58.647Z,1.10
2018-12-25T20:56:05.864Z,1.63
2018-12-25T20:59:13.055Z,1.30
2018-12-25T21:02:02.495Z,1.60
2018-12-25T21:05:09.670Z,1.37
2018-12-25T21:11:17.888Z,1.50
2018-12-25T21:14:29.103Z,1.30
2018-12-25T21:20:50.169Z,1.13
2018-12-25T21:23:57.382Z,1.30
2018-12-25T21:27:04.595Z,1.00
2018-12-25T21:29:33.259Z,1.60
2018-12-25T21:35:29.370Z,1.27
2018-12-25T21:38:18.741Z,1.27
2018-12-25T21:41:08.138Z,1.20
2018-12-25T21:43:57.483Z,1.50
2018-12-25T21:46:45.256Z,1.33
2018-12-25T21:49:34.629Z,1.47
2018-12-25T21:52:24.014Z,1.70
2018-12-25T21:55:18.658Z,1.50
2018-12-25T21:58:04.531Z,1.30
2018-12-25T22:00:35.266Z,1.40
2018-12-25T22:03:03.611Z,1.40
2018-12-25T22:05:52.828Z,1.70
2018-12-25T22:08:21.391Z,1.43
2018-12-25T22:11:09.247Z,1.40
2018-12-25T22:13:37.796Z,1.20
2018-12-25T22:16:06.422Z,1.80
2018-12-25T22:18:34.952Z,1.13
2018-12-25T22:21:03.560Z,1.43
2018-12-25T22:23:52.462Z,1.37
2018-12-25T22:26:21.659Z,1.70
2018-12-25T22:28:50.246Z,1.63
2018-12-25T22:31:18.826Z,1.37
2018-12-25T22:33:47.388Z,1.77
2018-12-25T22:36:15.983Z,1.60
2018-12-25T22:38:44.563Z,2.13
2018-12-25T22:41:13.114Z,1.77
2018-12-25T22:43:41.711Z,1.23
2018-12-25T22:46:10.284Z,1.97
2018-12-25T22:48:38.862Z,1.47
2018-12-25T22:51:07.436Z,1.43
2018-12-25T22:53:36.060Z,2.17
2018-12-25T22:56:04.626Z,2.07
2018-12-25T22:58:33.214Z,1.83
2018-12-25T23:01:22.579Z,2.10
2018-12-25T23:03:51.134Z,1.90
2018-12-25T23:06:19.884Z,1.30
2018-12-25T23:08:48.459Z,1.70
2018-12-25T23:11:17.019Z,1.97
2018-12-25T23:13:45.625Z,1.80
2018-12-25T23:16:15.952Z,2.23
2018-12-25T23:19:03.654Z,1.90
2018-12-25T23:21:32.212Z,1.57
2018-12-25T23:24:00.849Z,2.17
2018-12-25T23:26:29.384Z,2.10
2018-12-25T23:28:58.077Z,2.37
2018-12-25T23:31:26.621Z,1.83
2018-12-25T23:33:55.207Z,1.77
2018-12-25T23:36:23.789Z,2.00
2018-12-25T23:38:52.412Z,1.97
2018-12-25T23:41:20.939Z,2.00
2018-12-25T23:43:49.522Z,2.00
2018-12-25T23:46:18.082Z,1.97
2018-12-25T23:48:46.659Z,2.00
2018-12-25T23:51:15.230Z,2.30
2018-12-25T23:53:43.816Z,2.00
2018-12-25T23:56:12.390Z,1.60
2018-12-25T23:58:40.989Z,1.83
